createdAt,value
2022-08-07T00:00:56.813Z,71.92
2022-08-07T00:04:15.847Z,72.27
2022-08-07T00:07:41.849Z,70.34
2022-08-07T00:17:50.989Z,72.79
2022-08-07T00:20:34.467Z,73.53
2022-08-07T00:32:37.276Z,71.65
2022-08-07T00:35:07.514Z,71.63
2022-08-07T00:37:47.749Z,71.17
2022-08-07T00:40:17.448Z,72.91
2022-08-07T00:43:59.621Z,73.82
2022-08-07T00:46:04.589Z,71.68
2022-08-07T00:48:42.026Z,74.74
2022-08-07T00:51:11.918Z,75.81
2022-08-07T00:53:50.622Z,73.63
2022-08-07T00:56:30.386Z,73.35
2022-08-07T00:59:03.855Z,72.58
2022-08-07T01:01:41.554Z,71.89
2022-08-07T01:04:24.723Z,73.06
2022-08-07T01:06:56.289Z,74.11
2022-08-07T01:09:35.671Z,72.60
2022-08-07T01:12:29.582Z,71.07
2022-08-07T01:15:01.026Z,70.55
2022-08-07T01:17:31.785Z,74.39
2022-08-07T01:20:09.231Z,74.78
2022-08-07T01:22:46.877Z,73.42
2022-08-07T01:25:54.354Z,76.54
2022-08-07T01:28:19.430Z,76.48
2022-08-07T01:30:52.169Z,74.48
2022-08-07T01:43:19.065Z,78.80
2022-08-07T01:45:59.420Z,76.76
2022-08-07T01:48:46.844Z,80.95
2022-08-07T01:52:02.176Z,79.60
2022-08-07T01:58:29.706Z,77.95
2022-08-07T02:34:03.295Z,78.65
2022-08-07T02:36:34.356Z,79.25
2022-08-07T02:39:16.294Z,79.10
2022-08-07T02:41:54.794Z,80.60
2022-08-07T02:44:27.531Z,79.10
2022-08-07T02:47:01.609Z,80.73
2022-08-07T02:49:58.224Z,80.75
2022-08-07T02:52:32.024Z,83.85
2022-08-07T02:55:15.275Z,83.91
2022-08-07T02:58:03.152Z,85.16
2022-08-07T03:00:39.185Z,84.17
2022-08-07T03:03:13.520Z,82.55
2022-08-07T03:05:57.735Z,86.65
2022-08-07T03:08:29.310Z,82.59
2022-08-07T03:10:59.661Z,85.28
2022-08-07T03:13:29.389Z,85.52
2022-08-07T03:16:07.872Z,86.21
2022-08-07T03:18:38.408Z,86.91
2022-08-07T03:21:11.450Z,85.82
2022-08-07T03:24:20.524Z,86.55
2022-08-07T03:26:34.037Z,87.64
2022-08-07T03:29:11.179Z,88.26
2022-08-07T03:31:50.004Z,86.90
2022-08-07T03:34:22.295Z,87.06
2022-08-07T03:36:54.719Z,86.48
2022-08-07T03:39:46.266Z,84.86
2022-08-07T03:42:15.914Z,85.13
2022-08-07T03:44:53.199Z,86.16
2022-08-07T03:47:23.129Z,86.34
2022-08-07T03:49:53.633Z,87.27
2022-08-07T03:52:29.286Z,86.25
2022-08-07T03:55:07.470Z,84.49
2022-08-07T03:58:34.251Z,86.38
2022-08-07T04:00:29.267Z,89.03
2022-08-07T04:03:04.326Z,92.69
2022-08-07T04:05:40.363Z,88.44
2022-08-07T04:08:18.369Z,89.38
2022-08-07T04:10:54.353Z,89.63
2022-08-07T04:14:33.079Z,94.85
2022-08-07T04:16:31.337Z,92.93
2022-08-07T04:19:12.348Z,90.68
2022-08-07T04:21:59.603Z,88.04
2022-08-07T04:24:34.076Z,85.04
2022-08-07T04:27:20.207Z,88.48
2022-08-07T04:30:01.165Z,87.90
2022-08-07T04:32:34.708Z,86.27
2022-08-07T04:35:06.318Z,88.21
2022-08-07T04:38:01.228Z,88.46
2022-08-07T04:40:30.129Z,87.01
2022-08-07T04:43:03.348Z,88.46
2022-08-07T04:45:57.859Z,89.17
2022-08-07T04:48:44.593Z,85.69
2022-08-07T04:51:27.785Z,85.87
2022-08-07T04:54:06.155Z,84.48
2022-08-07T04:58:15.884Z,83.27
2022-08-07T05:00:12.489Z,80.58
2022-08-07T05:02:45.501Z,79.20
2022-08-07T05:05:53.407Z,81.35
2022-08-07T05:08:59.287Z,78.77
2022-08-07T05:11:19.503Z,81.11
2022-08-07T05:14:53.189Z,78.55
2022-08-07T05:16:53.840Z,82.37
2022-08-07T05:19:44.394Z,83.55
2022-08-07T05:22:26.593Z,84.30
2022-08-07T05:24:59.489Z,85.13
2022-08-07T05:28:01.930Z,83.29
2022-08-07T05:30:32.609Z,84.39
2022-08-07T05:33:03.592Z,84.08
2022-08-07T05:35:41.775Z,84.82
2022-08-07T05:38:59.510Z,87.06
2022-08-07T05:41:12.097Z,85.64
2022-08-07T05:44:12.013Z,84.11
2022-08-07T05:46:42.885Z,83.77
2022-08-07T05:49:14.324Z,84.88
2022-08-07T05:51:46.409Z,83.55
2022-08-07T05:54:30.944Z,82.99
2022-08-07T05:57:08.276Z,84.29
2022-08-07T05:59:56.063Z,84.09
2022-08-07T06:02:32.691Z,83.67
2022-08-07T06:05:07.128Z,83.38
2022-08-07T06:08:09.335Z,84.20
2022-08-07T06:10:26.815Z,84.15
2022-08-07T06:12:56.723Z,83.47
2022-08-07T06:15:42.170Z,82.78
2022-08-07T06:18:14.523Z,81.72
2022-08-07T06:20:50.903Z,83.02
2022-08-07T06:24:37.268Z,79.60
2022-08-07T06:26:27.413Z,81.78
2022-08-07T06:29:01.148Z,81.77
2022-08-07T06:31:47.031Z,82.00
2022-08-07T06:34:21.594Z,84.09
2022-08-07T06:36:51.985Z,85.08
2022-08-07T06:40:16.830Z,78.58
2022-08-07T06:42:17.659Z,78.95
2022-08-07T06:44:51.472Z,80.74
2022-08-07T06:47:21.470Z,81.15
2022-08-07T06:49:58.495Z,81.87
2022-08-07T06:52:35.678Z,74.55
2022-08-07T06:55:33.827Z,89.59
2022-08-07T06:58:05.218Z,80.43
2022-08-07T07:00:42.755Z,71.22
2022-08-07T07:03:14.365Z,70.76
2022-08-07T07:06:02.840Z,72.66
2022-08-07T07:08:35.462Z,72.81
2022-08-07T07:11:13.066Z,76.61
2022-08-07T07:13:57.773Z,74.31
2022-08-07T07:16:45.181Z,72.96
2022-08-07T07:19:56.100Z,71.63
2022-08-07T07:22:36.835Z,66.23
2022-08-07T07:26:34.706Z,70.60
2022-08-07T07:28:42.348Z,68.72
2022-08-07T07:31:21.595Z,70.22
2022-08-07T07:33:57.214Z,72.61
2022-08-07T07:36:32.492Z,73.76
2022-08-07T07:39:05.654Z,68.86
2022-08-07T07:42:02.043Z,70.29
2022-08-07T07:44:26.923Z,69.00
2022-08-07T07:47:13.993Z,67.05
2022-08-07T07:50:32.445Z,68.65
2022-08-07T07:52:39.049Z,67.31
2022-08-07T07:55:12.014Z,65.60
2022-08-07T07:57:51.608Z,65.69
2022-08-07T08:00:29.870Z,66.60
2022-08-07T08:03:06.716Z,67.31
2022-08-07T08:05:54.782Z,69.01
2022-08-07T08:08:35.471Z,70.20
2022-08-07T08:11:13.488Z,69.96
2022-08-07T08:13:53.424Z,65.86
2022-08-07T08:16:38.473Z,65.76
2022-08-07T08:19:17.449Z,69.44
2022-08-07T08:22:08.251Z,65.81
2022-08-07T08:25:09.396Z,65.26
2022-08-07T08:27:56.492Z,61.04
2022-08-07T08:30:32.184Z,60.38
2022-08-07T08:33:10.622Z,62.27
2022-08-07T08:35:50.638Z,62.53
2022-08-07T08:38:29.265Z,63.50
2022-08-07T08:41:03.014Z,62.40
2022-08-07T08:43:56.218Z,63.23
2022-08-07T08:46:49.143Z,64.16
2022-08-07T08:49:32.758Z,65.54
2022-08-07T08:55:55.379Z,63.54
2022-08-07T08:58:54.342Z,58.88
2022-08-07T09:01:30.017Z,60.02
2022-08-07T09:04:13.426Z,58.76
2022-08-07T09:06:50.655Z,58.82
2022-08-07T09:09:56.841Z,58.97
2022-08-07T09:12:53.043Z,59.64
2022-08-07T09:16:22.087Z,59.22
2022-08-07T09:18:58.694Z,58.61
2022-08-07T09:22:09.781Z,57.19
2022-08-07T09:24:58.631Z,58.18
2022-08-07T09:27:54.580Z,59.15
2022-08-07T09:30:29.423Z,60.49
2022-08-07T09:33:16.538Z,60.77
2022-08-07T09:36:04.017Z,59.95
2022-08-07T09:38:50.132Z,58.92
2022-08-07T09:41:36.453Z,58.00
2022-08-07T09:44:30.031Z,56.23
2022-08-07T09:47:57.829Z,56.71
2022-08-07T09:50:34.507Z,53.37
2022-08-07T09:53:07.625Z,54.77
2022-08-07T09:56:03.817Z,54.16
2022-08-07T09:59:07.734Z,55.10
2022-08-07T10:02:09.811Z,55.78
2022-08-07T10:05:12.714Z,52.48
2022-08-07T10:08:04.031Z,55.16
2022-08-07T10:12:00.397Z,55.41
2022-08-07T10:14:00.221Z,54.33
2022-08-07T10:17:14.207Z,52.38
2022-08-07T10:20:05.062Z,54.78
2022-08-07T10:23:01.420Z,52.19
2022-08-07T10:25:44.931Z,52.10
2022-08-07T10:28:52.628Z,53.75
2022-08-07T10:31:45.331Z,51.97
2022-08-07T10:34:37.455Z,52.36
2022-08-07T10:38:00.009Z,53.37
2022-08-07T10:40:30.397Z,53.32
2022-08-07T10:43:08.851Z,52.26
2022-08-07T10:45:44.339Z,51.23
2022-08-07T10:48:44.324Z,48.54
2022-08-07T10:52:01.728Z,46.71
2022-08-07T10:54:22.186Z,46.05
2022-08-07T10:57:08.615Z,46.33
2022-08-07T11:00:09.095Z,46.26
2022-08-07T11:02:49.211Z,45.34
2022-08-07T11:05:49.207Z,44.62
2022-08-07T11:08:33.861Z,46.66
2022-08-07T11:11:10.827Z,46.18
2022-08-07T11:14:44.158Z,44.18
2022-08-07T11:16:51.055Z,44.97
2022-08-07T11:19:30.773Z,45.97
2022-08-07T11:22:18.965Z,45.81
2022-08-07T11:25:11.083Z,45.47
2022-08-07T11:28:02.728Z,45.26
2022-08-07T11:30:52.262Z,43.52
2022-08-07T11:33:53.563Z,40.22
2022-08-07T11:36:40.330Z,42.43
2022-08-07T11:39:39.870Z,42.51
2022-08-07T11:42:29.386Z,41.46
2022-08-07T11:45:14.241Z,39.94
2022-08-07T11:48:26.785Z,40.46
2022-08-07T11:51:41.492Z,41.37
2022-08-07T11:54:54.757Z,42.93
2022-08-07T11:57:57.974Z,41.88
2022-08-07T12:00:39.718Z,40.45
2022-08-07T12:03:45.654Z,42.42
2022-08-07T12:06:38.863Z,43.55
2022-08-07T12:09:23.413Z,41.28
2022-08-07T12:12:09.383Z,40.83
2022-08-07T12:14:55.435Z,41.71
2022-08-07T12:17:39.883Z,41.95
2022-08-07T12:20:37.536Z,42.09
2022-08-07T12:23:37.250Z,38.65
2022-08-07T12:26:29.121Z,41.33
2022-08-07T12:29:09.102Z,41.95
2022-08-07T12:32:02.236Z,41.61
2022-08-07T12:34:37.403Z,41.52
2022-08-07T12:37:22.901Z,40.10
2022-08-07T12:39:58.993Z,40.27
2022-08-07T12:42:32.074Z,40.49
2022-08-07T12:45:10.927Z,41.77
2022-08-07T12:47:53.399Z,41.08
2022-08-07T12:50:33.713Z,42.33
2022-08-07T12:53:28.482Z,42.34
2022-08-07T12:56:28.699Z,44.21
2022-08-07T12:58:59.574Z,41.90
2022-08-07T13:01:44.511Z,43.07
2022-08-07T13:04:34.899Z,42.52
2022-08-07T13:08:14.465Z,40.28
2022-08-07T13:11:04.031Z,44.33
2022-08-07T13:13:50.291Z,44.08
2022-08-07T13:16:33.088Z,41.71
2022-08-07T13:19:34.846Z,43.01
2022-08-07T13:22:19.771Z,44.05
2022-08-07T13:25:06.040Z,42.78
2022-08-07T13:28:10.789Z,45.21
2022-08-07T13:30:40.003Z,43.13
2022-08-07T13:34:33.385Z,43.11
2022-08-07T13:36:17.696Z,43.90
2022-08-07T13:39:04.929Z,41.63
2022-08-07T13:41:47.647Z,42.43
2022-08-07T13:44:26.426Z,41.59
2022-08-07T13:47:00.963Z,41.44
2022-08-07T13:50:33.460Z,43.48
2022-08-07T13:52:32.271Z,42.95
2022-08-07T13:55:19.170Z,41.11
2022-08-07T13:58:01.992Z,42.48
2022-08-07T14:00:50.522Z,41.67
2022-08-07T14:03:28.896Z,42.48
2022-08-07T14:06:11.881Z,41.47
2022-08-07T14:08:48.742Z,40.50
2022-08-07T14:11:24.474Z,37.34
2022-08-07T14:14:05.264Z,39.07
2022-08-07T14:16:41.544Z,39.21
2022-08-07T14:20:40.088Z,39.06
2022-08-07T14:22:34.442Z,39.58
2022-08-07T14:25:12.042Z,38.41
2022-08-07T14:28:12.885Z,36.84
2022-08-07T14:30:41.084Z,39.72
2022-08-07T14:33:14.905Z,37.59
2022-08-07T14:35:47.538Z,37.43
2022-08-07T14:38:26.336Z,37.40
2022-08-07T14:41:04.295Z,38.87
2022-08-07T14:43:58.939Z,39.55
2022-08-07T14:49:58.432Z,36.27
2022-08-07T14:58:05.083Z,36.63
2022-08-07T15:00:36.511Z,37.13
2022-08-07T15:03:18.771Z,36.93
2022-08-07T15:05:55.367Z,36.84
2022-08-07T15:08:54.689Z,37.00
2022-08-07T15:11:53.541Z,37.16
2022-08-07T15:14:30.599Z,38.47
2022-08-07T15:17:05.914Z,39.36
2022-08-07T15:20:33.979Z,37.77
2022-08-07T15:22:54.531Z,36.18
2022-08-07T15:28:41.551Z,37.13
2022-08-07T15:31:57.987Z,38.42
2022-08-07T15:34:17.211Z,38.96
2022-08-07T15:37:03.745Z,37.63
2022-08-07T15:42:51.918Z,35.86
2022-08-07T15:45:55.449Z,36.31
2022-08-07T15:51:19.825Z,39.19
2022-08-07T15:54:12.011Z,38.96
2022-08-07T15:56:48.322Z,38.70
2022-08-07T15:59:39.277Z,38.82
2022-08-07T16:02:24.908Z,37.88
2022-08-07T16:05:03.366Z,40.52
2022-08-07T16:08:30.817Z,38.91
2022-08-07T16:10:31.302Z,37.67
2022-08-07T16:13:58.325Z,38.93
2022-08-07T16:16:51.232Z,39.05
2022-08-07T16:20:04.733Z,38.40
2022-08-07T16:23:09.814Z,38.20
2022-08-07T16:25:56.783Z,38.02
2022-08-07T16:30:06.571Z,37.41
2022-08-07T16:31:51.618Z,38.53
2022-08-07T16:34:41.572Z,39.13
2022-08-07T16:38:03.754Z,40.23
2022-08-07T16:41:04.515Z,40.33
2022-08-07T16:44:06.099Z,40.71
2022-08-07T16:47:14.389Z,40.19
2022-08-07T16:50:36.335Z,41.69
2022-08-07T16:54:01.798Z,43.08
2022-08-07T16:56:53.335Z,43.04
2022-08-07T16:59:45.760Z,42.96
2022-08-07T17:02:51.739Z,43.30
2022-08-07T17:06:29.109Z,44.80
2022-08-07T17:10:05.321Z,44.38
2022-08-07T17:12:36.624Z,44.52
2022-08-07T17:15:09.415Z,43.51
2022-08-07T17:17:50.767Z,43.11
2022-08-07T17:20:35.571Z,43.91
2022-08-07T17:23:32.630Z,45.05
2022-08-07T17:26:22.661Z,45.15
2022-08-07T17:29:09.826Z,45.77
2022-08-07T17:32:30.078Z,44.90
2022-08-07T17:35:49.744Z,45.55
2022-08-07T17:38:13.495Z,44.61
2022-08-07T17:42:00.809Z,44.12
2022-08-07T17:44:13.686Z,44.35
2022-08-07T17:46:57.303Z,45.40
2022-08-07T17:49:45.104Z,45.15
2022-08-07T17:52:30.583Z,46.10
2022-08-07T17:55:09.258Z,45.73
2022-08-07T17:57:58.998Z,47.01
2022-08-07T18:00:49.106Z,46.33
2022-08-07T18:03:26.854Z,47.33
2022-08-07T18:06:06.411Z,47.50
2022-08-07T18:09:01.177Z,47.62
2022-08-07T18:12:17.931Z,48.22
2022-08-07T18:14:44.926Z,48.20
2022-08-07T18:18:45.569Z,49.12
2022-08-07T18:21:08.043Z,48.84
2022-08-07T18:23:43.481Z,47.41
2022-08-07T18:26:32.286Z,47.22
2022-08-07T18:30:08.031Z,48.18
2022-08-07T18:32:23.410Z,47.72
2022-08-07T18:35:13.102Z,48.81
2022-08-07T18:38:58.086Z,48.97
2022-08-07T18:41:20.618Z,48.63
2022-08-07T18:44:08.486Z,49.22
2022-08-07T18:48:02.652Z,50.01
2022-08-07T18:50:58.124Z,50.19
2022-08-07T18:53:48.622Z,51.29
2022-08-07T18:56:37.784Z,52.67
2022-08-07T18:59:59.029Z,50.87
2022-08-07T19:02:43.159Z,50.34
2022-08-07T19:06:03.481Z,49.86
2022-08-07T19:18:01.593Z,52.91
2022-08-07T19:20:30.531Z,50.99
2022-08-07T19:23:57.144Z,49.17
2022-08-07T19:29:02.793Z,50.86
2022-08-07T19:31:03.180Z,51.52
2022-08-07T19:33:42.077Z,52.33
2022-08-07T19:36:17.892Z,52.00
2022-08-07T19:39:40.595Z,51.47
2022-08-07T19:43:21.764Z,52.25
2022-08-07T19:46:10.161Z,52.96
2022-08-07T19:48:59.506Z,55.22
2022-08-07T19:51:52.363Z,54.51
2022-08-07T19:54:45.243Z,53.68
2022-08-07T19:58:04.472Z,53.56
2022-08-07T20:00:28.202Z,53.01
2022-08-07T20:03:36.493Z,53.20
2022-08-07T20:06:31.580Z,54.26
2022-08-07T20:09:03.046Z,54.18
2022-08-07T20:12:22.512Z,54.08
2022-08-07T20:14:31.378Z,53.46
2022-08-07T20:17:05.591Z,54.68
2022-08-07T20:19:48.158Z,54.17
2022-08-07T20:22:34.054Z,56.44
2022-08-07T20:25:19.915Z,56.40
2022-08-07T20:27:57.976Z,56.36
2022-08-07T20:30:33.127Z,54.65
2022-08-07T20:33:04.657Z,54.92
2022-08-07T20:35:51.957Z,54.77
2022-08-07T20:38:31.314Z,55.03
2022-08-07T20:41:05.476Z,54.48
2022-08-07T20:43:47.513Z,57.33
2022-08-07T20:46:28.339Z,58.06
2022-08-07T20:50:01.161Z,55.49
2022-08-07T20:51:54.721Z,59.21
2022-08-07T20:54:45.569Z,57.99
2022-08-07T20:57:28.583Z,58.06
2022-08-07T21:00:05.179Z,56.78
2022-08-07T21:03:00.830Z,57.67
2022-08-07T21:05:51.298Z,58.26
2022-08-07T21:08:36.588Z,59.18
2022-08-07T21:11:10.919Z,59.20
2022-08-07T21:14:16.617Z,61.13
2022-08-07T21:16:57.031Z,60.17
2022-08-07T21:19:51.770Z,61.06
2022-08-07T21:22:33.430Z,61.45
2022-08-07T21:25:16.248Z,61.83
2022-08-07T21:28:02.019Z,62.15
2022-08-07T21:30:47.014Z,63.66
2022-08-07T21:33:22.781Z,62.22
2022-08-07T21:36:06.693Z,64.22
2022-08-07T21:38:55.422Z,62.18
2022-08-07T21:41:38.256Z,62.65
2022-08-07T21:44:33.460Z,62.85
2022-08-07T21:47:17.439Z,61.97
2022-08-07T21:50:03.301Z,63.68
2022-08-07T21:52:54.490Z,63.09
2022-08-07T21:55:30.747Z,64.41
2022-08-07T21:58:12.111Z,64.51
2022-08-07T22:01:04.527Z,62.07
2022-08-07T22:03:42.434Z,64.26
2022-08-07T22:06:30.095Z,64.38
2022-08-07T22:09:10.221Z,63.01
2022-08-07T22:12:05.223Z,62.54
2022-08-07T22:14:59.350Z,61.49
2022-08-07T22:17:38.165Z,61.42
2022-08-07T22:20:23.133Z,61.97
2022-08-07T22:23:05.635Z,63.12
2022-08-07T22:25:45.252Z,64.21
2022-08-07T22:28:31.557Z,61.64
2022-08-07T22:31:56.421Z,64.37
2022-08-07T22:34:13.629Z,62.89
2022-08-07T22:36:53.222Z,64.52
2022-08-07T22:39:53.466Z,65.23
2022-08-07T22:42:31.140Z,63.51
2022-08-07T22:45:10.997Z,64.33
2022-08-07T22:48:31.588Z,63.38
2022-08-07T22:51:36.423Z,63.96
2022-08-07T22:54:32.729Z,63.60
2022-08-07T22:57:17.002Z,63.98
2022-08-07T22:59:58.352Z,66.06
2022-08-07T23:02:52.346Z,64.25
2022-08-07T23:06:07.149Z,64.30
2022-08-07T23:10:06.296Z,64.00
2022-08-07T23:12:34.086Z,62.60
2022-08-07T23:16:04.536Z,64.84
2022-08-07T23:18:27.094Z,66.26
2022-08-07T23:21:29.887Z,66.34
2022-08-07T23:24:31.232Z,65.66
2022-08-07T23:27:33.494Z,65.47
2022-08-07T23:30:38.060Z,64.44
2022-08-07T23:34:35.187Z,63.79
2022-08-07T23:36:38.003Z,65.12
2022-08-07T23:39:22.091Z,65.50
2022-08-07T23:42:30.452Z,65.23
2022-08-07T23:46:03.706Z,67.43
2022-08-07T23:48:43.368Z,67.48
2022-08-07T23:53:00.970Z,67.43
2022-08-07T23:54:44.019Z,66.37
2022-08-07T23:57:34.693Z,67.76
